sensor_id;sensor_type;location;lat;lon;timestamp;temperature;humidity
18207;DHT22;9229;52.354;20.886;2023-05-23T00:00:50;11.00;99.90
18207;DHT22;9229;52.354;20.886;2023-05-23T00:05:52;11.10;99.90
18207;DHT22;9229;52.354;20.886;2023-05-23T00:10:58;10.90;99.90
18207;DHT22;9229;52.354;20.886;2023-05-23T00:16:00;10.90;99.90
18207;DHT22;9229;52.354;20.886;2023-05-23T00:21:03;10.80;99.90
18207;DHT22;9229;52.354;20.886;2023-05-23T00:26:06;10.70;99.90
18207;DHT22;9229;52.354;20.886;2023-05-23T00:31:10;10.70;99.90
18207;DHT22;9229;52.354;20.886;2023-05-23T00:36:12;10.60;99.90
18207;DHT22;9229;52.354;20.886;2023-05-23T00:41:16;10.60;99.90
18207;DHT22;9229;52.354;20.886;2023-05-23T00:46:19;10.50;99.90
18207;DHT22;9229;52.354;20.886;2023-05-23T00:51:23;10.50;99.90
18207;DHT22;9229;52.354;20.886;2023-05-23T00:56:30;10.50;99.90
18207;DHT22;9229;52.354;20.886;2023-05-23T01:01:32;10.50;99.90
18207;DHT22;9229;52.354;20.886;2023-05-23T01:06:36;10.40;99.90
18207;DHT22;9229;52.354;20.886;2023-05-23T01:11:49;10.30;99.90
18207;DHT22;9229;52.354;20.886;2023-05-23T01:16:57;10.30;99.90
18207;DHT22;9229;52.354;20.886;2023-05-23T01:22:02;10.20;99.90
18207;DHT22;9229;52.354;20.886;2023-05-23T01:27:21;10.10;99.90
18207;DHT22;9229;52.354;20.886;2023-05-23T01:32:31;10.10;99.90
18207;DHT22;9229;52.354;20.886;2023-05-23T01:37:35;10.00;99.90
18207;DHT22;9229;52.354;20.886;2023-05-23T01:42:38;10.00;99.90
18207;DHT22;9229;52.354;20.886;2023-05-23T01:47:41;9.90;99.90
18207;DHT22;9229;52.354;20.886;2023-05-23T01:52:46;9.90;99.90
18207;DHT22;9229;52.354;20.886;2023-05-23T01:57:50;9.80;99.90
18207;DHT22;9229;52.354;20.886;2023-05-23T02:02:55;9.80;99.90
18207;DHT22;9229;52.354;20.886;2023-05-23T02:07:58;9.80;99.90
18207;DHT22;9229;52.354;20.886;2023-05-23T02:13:00;9.70;99.90
18207;DHT22;9229;52.354;20.886;2023-05-23T02:18:06;9.60;99.90
18207;DHT22;9229;52.354;20.886;2023-05-23T02:23:09;9.60;99.90
18207;DHT22;9229;52.354;20.886;2023-05-23T02:28:12;9.50;99.90
18207;DHT22;9229;52.354;20.886;2023-05-23T02:33:17;9.50;99.90
18207;DHT22;9229;52.354;20.886;2023-05-23T02:38:20;9.40;99.90
18207;DHT22;9229;52.354;20.886;2023-05-23T02:43:22;9.40;99.90
18207;DHT22;9229;52.354;20.886;2023-05-23T02:48:28;9.40;99.90
18207;DHT22;9229;52.354;20.886;2023-05-23T02:53:30;9.40;99.90
18207;DHT22;9229;52.354;20.886;2023-05-23T02:58:32;9.40;99.90
18207;DHT22;9229;52.354;20.886;2023-05-23T03:03:38;9.50;99.90
18207;DHT22;9229;52.354;20.886;2023-05-23T03:08:42;9.50;99.90
18207;DHT22;9229;52.354;20.886;2023-05-23T03:13:44;9.50;99.90
18207;DHT22;9229;52.354;20.886;2023-05-23T03:18:48;9.60;99.90
18207;DHT22;9229;52.354;20.886;2023-05-23T03:23:51;9.70;99.90
18207;DHT22;9229;52.354;20.886;2023-05-23T03:28:52;9.80;99.90
18207;DHT22;9229;52.354;20.886;2023-05-23T03:33:57;9.90;99.90
18207;DHT22;9229;52.354;20.886;2023-05-23T03:39:01;10.10;99.90
18207;DHT22;9229;52.354;20.886;2023-05-23T03:44:03;10.20;99.90
18207;DHT22;9229;52.354;20.886;2023-05-23T03:49:06;10.40;99.90
18207;DHT22;9229;52.354;20.886;2023-05-23T03:54:09;10.60;99.90
18207;DHT22;9229;52.354;20.886;2023-05-23T03:59:12;10.80;99.90
18207;DHT22;9229;52.354;20.886;2023-05-23T04:04:16;11.10;99.90
18207;DHT22;9229;52.354;20.886;2023-05-23T04:09:20;11.20;99.90
18207;DHT22;9229;52.354;20.886;2023-05-23T04:14:24;11.40;99.90
18207;DHT22;9229;52.354;20.886;2023-05-23T04:19:30;11.60;99.90
18207;DHT22;9229;52.354;20.886;2023-05-23T04:24:33;11.70;99.90
18207;DHT22;9229;52.354;20.886;2023-05-23T04:29:37;11.90;99.90
18207;DHT22;9229;52.354;20.886;2023-05-23T04:34:42;12.20;99.90
18207;DHT22;9229;52.354;20.886;2023-05-23T04:39:45;12.40;99.90
18207;DHT22;9229;52.354;20.886;2023-05-23T04:45:09;12.70;99.90
18207;DHT22;9229;52.354;20.886;2023-05-23T04:50:34;13.00;99.90
18207;DHT22;9229;52.354;20.886;2023-05-23T04:55:38;13.30;99.90
18207;DHT22;9229;52.354;20.886;2023-05-23T05:00:45;13.70;99.90
18207;DHT22;9229;52.354;20.886;2023-05-23T05:05:52;14.00;99.90
18207;DHT22;9229;52.354;20.886;2023-05-23T05:10:55;14.60;99.90
18207;DHT22;9229;52.354;20.886;2023-05-23T05:15:57;15.50;99.90
18207;DHT22;9229;52.354;20.886;2023-05-23T05:21:02;16.30;99.90
18207;DHT22;9229;52.354;20.886;2023-05-23T05:26:07;17.10;99.90
18207;DHT22;9229;52.354;20.886;2023-05-23T05:31:11;17.90;99.90
18207;DHT22;9229;52.354;20.886;2023-05-23T05:36:18;18.70;99.90
18207;DHT22;9229;52.354;20.886;2023-05-23T05:41:24;19.40;99.90
18207;DHT22;9229;52.354;20.886;2023-05-23T05:46:28;20.20;99.90
18207;DHT22;9229;52.354;20.886;2023-05-23T05:51:32;21.00;99.90
18207;DHT22;9229;52.354;20.886;2023-05-23T05:56:34;21.80;95.30
18207;DHT22;9229;52.354;20.886;2023-05-23T06:01:36;22.60;91.40
18207;DHT22;9229;52.354;20.886;2023-05-23T06:06:42;23.20;87.50
18207;DHT22;9229;52.354;20.886;2023-05-23T06:11:45;24.00;82.40
18207;DHT22;9229;52.354;20.886;2023-05-23T06:16:48;24.60;72.90
18207;DHT22;9229;52.354;20.886;2023-05-23T06:21:55;24.70;69.10
18207;DHT22;9229;52.354;20.886;2023-05-23T06:26:57;24.50;65.50
18207;DHT22;9229;52.354;20.886;2023-05-23T06:31:59;24.90;64.90
18207;DHT22;9229;52.354;20.886;2023-05-23T06:37:03;25.70;63.20
18207;DHT22;9229;52.354;20.886;2023-05-23T06:42:08;26.40;59.10
18207;DHT22;9229;52.354;20.886;2023-05-23T06:47:29;27.00;56.70
18207;DHT22;9229;52.354;20.886;2023-05-23T06:52:32;27.20;54.90
18207;DHT22;9229;52.354;20.886;2023-05-23T06:57:34;27.20;53.20
18207;DHT22;9229;52.354;20.886;2023-05-23T07:02:38;26.90;53.10
18207;DHT22;9229;52.354;20.886;2023-05-23T07:07:42;26.80;52.50
18207;DHT22;9229;52.354;20.886;2023-05-23T07:12:45;27.00;52.80
18207;DHT22;9229;52.354;20.886;2023-05-23T07:17:49;27.70;51.60
18207;DHT22;9229;52.354;20.886;2023-05-23T07:22:53;27.80;49.30
18207;DHT22;9229;52.354;20.886;2023-05-23T07:27:57;28.00;49.90
18207;DHT22;9229;52.354;20.886;2023-05-23T07:33:00;28.20;48.20
18207;DHT22;9229;52.354;20.886;2023-05-23T07:38:03;28.50;49.20
18207;DHT22;9229;52.354;20.886;2023-05-23T07:43:06;28.60;46.70
18207;DHT22;9229;52.354;20.886;2023-05-23T07:48:13;28.80;46.80
18207;DHT22;9229;52.354;20.886;2023-05-23T07:53:17;28.90;46.90
18207;DHT22;9229;52.354;20.886;2023-05-23T07:58:19;29.40;46.80
18207;DHT22;9229;52.354;20.886;2023-05-23T08:03:23;29.80;45.40
18207;DHT22;9229;52.354;20.886;2023-05-23T08:08:40;30.60;44.20
18207;DHT22;9229;52.354;20.886;2023-05-23T08:13:43;30.60;44.00
18207;DHT22;9229;52.354;20.886;2023-05-23T08:19:08;30.40;42.80
18207;DHT22;9229;52.354;20.886;2023-05-23T08:24:14;30.20;44.00
18207;DHT22;9229;52.354;20.886;2023-05-23T08:29:18;30.60;43.30
18207;DHT22;9229;52.354;20.886;2023-05-23T08:34:28;31.30;42.10
18207;DHT22;9229;52.354;20.886;2023-05-23T08:39:52;31.90;39.80
18207;DHT22;9229;52.354;20.886;2023-05-23T08:45:10;32.60;40.70
18207;DHT22;9229;52.354;20.886;2023-05-23T08:50:13;33.50;37.10
18207;DHT22;9229;52.354;20.886;2023-05-23T08:55:19;34.00;34.80
18207;DHT22;9229;52.354;20.886;2023-05-23T09:00:23;33.70;35.10
18207;DHT22;9229;52.354;20.886;2023-05-23T09:05:27;33.60;35.40
18207;DHT22;9229;52.354;20.886;2023-05-23T09:10:32;33.90;34.80
18207;DHT22;9229;52.354;20.886;2023-05-23T09:15:55;34.00;34.50
18207;DHT22;9229;52.354;20.886;2023-05-23T09:20:58;34.40;33.90
18207;DHT22;9229;52.354;20.886;2023-05-23T09:26:03;33.70;34.60
18207;DHT22;9229;52.354;20.886;2023-05-23T09:31:19;33.30;33.70
18207;DHT22;9229;52.354;20.886;2023-05-23T09:36:47;34.30;33.50
18207;DHT22;9229;52.354;20.886;2023-05-23T09:42:10;34.70;32.60
18207;DHT22;9229;52.354;20.886;2023-05-23T09:47:22;34.60;31.50
18207;DHT22;9229;52.354;20.886;2023-05-23T09:52:24;34.00;32.30
18207;DHT22;9229;52.354;20.886;2023-05-23T09:57:34;34.00;31.90
18207;DHT22;9229;52.354;20.886;2023-05-23T10:03:07;34.60;32.30
18207;DHT22;9229;52.354;20.886;2023-05-23T10:08:15;34.30;32.70
18207;DHT22;9229;52.354;20.886;2023-05-23T10:13:22;33.40;33.00
18207;DHT22;9229;52.354;20.886;2023-05-23T10:18:28;33.20;34.70
18207;DHT22;9229;52.354;20.886;2023-05-23T10:23:32;34.30;33.40
18207;DHT22;9229;52.354;20.886;2023-05-23T10:28:36;34.80;31.10
18207;DHT22;9229;52.354;20.886;2023-05-23T10:33:43;33.60;34.20
18207;DHT22;9229;52.354;20.886;2023-05-23T10:38:52;32.80;35.20
18207;DHT22;9229;52.354;20.886;2023-05-23T10:44:04;32.70;35.00
18207;DHT22;9229;52.354;20.886;2023-05-23T10:49:07;34.30;34.20
18207;DHT22;9229;52.354;20.886;2023-05-23T10:54:12;34.60;32.20
18207;DHT22;9229;52.354;20.886;2023-05-23T10:59:22;34.70;33.20
18207;DHT22;9229;52.354;20.886;2023-05-23T11:04:30;35.40;32.20
18207;DHT22;9229;52.354;20.886;2023-05-23T11:09:32;36.20;32.00
18207;DHT22;9229;52.354;20.886;2023-05-23T11:14:53;35.50;30.10
18207;DHT22;9229;52.354;20.886;2023-05-23T11:19:58;33.30;32.60
18207;DHT22;9229;52.354;20.886;2023-05-23T11:25:08;33.20;33.70
18207;DHT22;9229;52.354;20.886;2023-05-23T11:30:16;34.20;32.60
18207;DHT22;9229;52.354;20.886;2023-05-23T11:35:24;34.20;32.50
18207;DHT22;9229;52.354;20.886;2023-05-23T11:40:35;34.70;32.50
18207;DHT22;9229;52.354;20.886;2023-05-23T11:45:42;34.70;32.40
18207;DHT22;9229;52.354;20.886;2023-05-23T11:50:47;34.50;33.40
18207;DHT22;9229;52.354;20.886;2023-05-23T11:55:52;35.60;31.70
18207;DHT22;9229;52.354;20.886;2023-05-23T12:00:59;35.90;31.50
18207;DHT22;9229;52.354;20.886;2023-05-23T12:06:01;36.30;31.10
18207;DHT22;9229;52.354;20.886;2023-05-23T12:11:04;35.80;30.60
18207;DHT22;9229;52.354;20.886;2023-05-23T12:16:12;35.20;31.40
18207;DHT22;9229;52.354;20.886;2023-05-23T12:21:14;35.30;32.00
18207;DHT22;9229;52.354;20.886;2023-05-23T12:26:16;33.40;32.60
18207;DHT22;9229;52.354;20.886;2023-05-23T12:31:21;31.90;34.80
18207;DHT22;9229;52.354;20.886;2023-05-23T12:36:24;32.10;34.70
18207;DHT22;9229;52.354;20.886;2023-05-23T12:41:31;32.10;34.50
18207;DHT22;9229;52.354;20.886;2023-05-23T13:05:10;31.10;36.70
18207;DHT22;9229;52.354;20.886;2023-05-23T13:10:40;32.60;34.20
18207;DHT22;9229;52.354;20.886;2023-05-23T13:17:10;32.60;34.10
18207;DHT22;9229;52.354;20.886;2023-05-23T13:22:00;33.30;34.30
18207;DHT22;9229;52.354;20.886;2023-05-23T13:29:22;34.00;33.20
18207;DHT22;9229;52.354;20.886;2023-05-23T13:33:20;32.30;34.00
18207;DHT22;9229;52.354;20.886;2023-05-23T13:44:44;32.50;35.40
18207;DHT22;9229;52.354;20.886;2023-05-23T13:50:42;33.30;35.10
18207;DHT22;9229;52.354;20.886;2023-05-23T13:56:17;32.20;35.00
18207;DHT22;9229;52.354;20.886;2023-05-23T14:01:35;30.50;37.00
18207;DHT22;9229;52.354;20.886;2023-05-23T14:06:40;29.20;38.20
18207;DHT22;9229;52.354;20.886;2023-05-23T14:11:43;28.30;39.30
18207;DHT22;9229;52.354;20.886;2023-05-23T14:16:49;27.90;40.10
18207;DHT22;9229;52.354;20.886;2023-05-23T14:21:52;27.60;40.70
18207;DHT22;9229;52.354;20.886;2023-05-23T14:26:54;27.20;41.30
18207;DHT22;9229;52.354;20.886;2023-05-23T14:31:58;27.20;41.70
18207;DHT22;9229;52.354;20.886;2023-05-23T14:37:16;27.00;41.70
18207;DHT22;9229;52.354;20.886;2023-05-23T14:43:08;26.90;41.80
18207;DHT22;9229;52.354;20.886;2023-05-23T14:48:36;26.70;41.30
18207;DHT22;9229;52.354;20.886;2023-05-23T14:53:44;26.50;42.40
18207;DHT22;9229;52.354;20.886;2023-05-23T14:59:18;26.40;42.80
18207;DHT22;9229;52.354;20.886;2023-05-23T15:05:13;26.30;42.30
18207;DHT22;9229;52.354;20.886;2023-05-23T15:10:17;26.20;43.20
18207;DHT22;9229;52.354;20.886;2023-05-23T15:15:26;26.10;43.20
18207;DHT22;9229;52.354;20.886;2023-05-23T15:20:44;26.20;42.80
18207;DHT22;9229;52.354;20.886;2023-05-23T15:26:00;26.40;43.40
18207;DHT22;9229;52.354;20.886;2023-05-23T15:31:47;26.60;43.30
18207;DHT22;9229;52.354;20.886;2023-05-23T18:11:50;22.50;52.90
18207;DHT22;9229;52.354;20.886;2023-05-23T18:22:26;22.10;53.40
18207;DHT22;9229;52.354;20.886;2023-05-23T18:27:35;21.90;54.00
18207;DHT22;9229;52.354;20.886;2023-05-23T18:32:40;21.70;55.20
18207;DHT22;9229;52.354;20.886;2023-05-23T18:37:59;21.50;55.00
18207;DHT22;9229;52.354;20.886;2023-05-23T18:43:12;21.40;56.30
18207;DHT22;9229;52.354;20.886;2023-05-23T18:48:25;21.20;56.30
18207;DHT22;9229;52.354;20.886;2023-05-23T18:53:27;21.00;57.30
18207;DHT22;9229;52.354;20.886;2023-05-23T18:58:40;21.00;56.90
18207;DHT22;9229;52.354;20.886;2023-05-23T19:04:28;21.00;57.60
18207;DHT22;9229;52.354;20.886;2023-05-23T19:09:56;21.00;57.90
18207;DHT22;9229;52.354;20.886;2023-05-23T19:15:09;20.90;57.90
18207;DHT22;9229;52.354;20.886;2023-05-23T19:20:13;20.80;57.70
18207;DHT22;9229;52.354;20.886;2023-05-23T19:25:20;20.70;57.60
18207;DHT22;9229;52.354;20.886;2023-05-23T19:30:26;20.50;57.80
18207;DHT22;9229;52.354;20.886;2023-05-23T19:35:32;20.30;58.10
18207;DHT22;9229;52.354;20.886;2023-05-23T19:40:34;20.40;58.90
18207;DHT22;9229;52.354;20.886;2023-05-23T19:45:50;20.30;59.00
18207;DHT22;9229;52.354;20.886;2023-05-23T19:51:05;20.20;59.30
18207;DHT22;9229;52.354;20.886;2023-05-23T19:56:11;20.10;59.50
18207;DHT22;9229;52.354;20.886;2023-05-23T20:01:19;20.00;60.00
18207;DHT22;9229;52.354;20.886;2023-05-23T20:06:27;19.90;60.10
18207;DHT22;9229;52.354;20.886;2023-05-23T20:11:31;19.90;60.70
18207;DHT22;9229;52.354;20.886;2023-05-23T20:16:36;19.80;60.90
18207;DHT22;9229;52.354;20.886;2023-05-23T20:21:38;19.80;61.40
18207;DHT22;9229;52.354;20.886;2023-05-23T20:26:40;19.70;62.00
18207;DHT22;9229;52.354;20.886;2023-05-23T20:31:43;19.60;62.30
18207;DHT22;9229;52.354;20.886;2023-05-23T20:36:46;19.60;62.40
18207;DHT22;9229;52.354;20.886;2023-05-23T20:41:49;19.50;62.70
18207;DHT22;9229;52.354;20.886;2023-05-23T20:46:55;19.40;62.80
18207;DHT22;9229;52.354;20.886;2023-05-23T20:51:57;19.30;63.10
18207;DHT22;9229;52.354;20.886;2023-05-23T20:57:00;19.30;62.70
18207;DHT22;9229;52.354;20.886;2023-05-23T21:02:04;19.30;63.00
18207;DHT22;9229;52.354;20.886;2023-05-23T21:07:07;19.20;63.50
18207;DHT22;9229;52.354;20.886;2023-05-23T21:12:09;19.20;64.20
18207;DHT22;9229;52.354;20.886;2023-05-23T21:17:12;19.10;64.80
18207;DHT22;9229;52.354;20.886;2023-05-23T21:22:15;19.00;65.40
18207;DHT22;9229;52.354;20.886;2023-05-23T21:27:17;19.00;66.20
18207;DHT22;9229;52.354;20.886;2023-05-23T21:32:21;18.90;66.50
18207;DHT22;9229;52.354;20.886;2023-05-23T21:37:23;18.80;66.70
18207;DHT22;9229;52.354;20.886;2023-05-23T21:42:25;18.80;66.80
18207;DHT22;9229;52.354;20.886;2023-05-23T21:47:31;18.70;67.20
18207;DHT22;9229;52.354;20.886;2023-05-23T21:52:34;18.70;67.60
18207;DHT22;9229;52.354;20.886;2023-05-23T21:57:36;18.70;68.20
18207;DHT22;9229;52.354;20.886;2023-05-23T22:02:50;18.60;68.90
18207;DHT22;9229;52.354;20.886;2023-05-23T22:07:52;18.50;68.90
18207;DHT22;9229;52.354;20.886;2023-05-23T22:12:54;18.50;68.60
18207;DHT22;9229;52.354;20.886;2023-05-23T22:17:59;18.40;68.10
18207;DHT22;9229;52.354;20.886;2023-05-23T22:23:02;18.40;67.60
18207;DHT22;9229;52.354;20.886;2023-05-23T22:28:05;18.30;67.20
18207;DHT22;9229;52.354;20.886;2023-05-23T22:33:09;18.30;67.30
18207;DHT22;9229;52.354;20.886;2023-05-23T22:38:13;18.30;67.50
18207;DHT22;9229;52.354;20.886;2023-05-23T22:43:16;18.30;67.60
18207;DHT22;9229;52.354;20.886;2023-05-23T22:48:22;18.20;67.60
18207;DHT22;9229;52.354;20.886;2023-05-23T22:53:25;18.20;68.30
18207;DHT22;9229;52.354;20.886;2023-05-23T22:58:28;18.20;68.70
18207;DHT22;9229;52.354;20.886;2023-05-23T23:03:31;18.10;69.20
18207;DHT22;9229;52.354;20.886;2023-05-23T23:08:34;18.00;69.50
18207;DHT22;9229;52.354;20.886;2023-05-23T23:13:37;18.00;70.30
18207;DHT22;9229;52.354;20.886;2023-05-23T23:18:40;18.00;70.50
18207;DHT22;9229;52.354;20.886;2023-05-23T23:23:42;17.90;71.20
18207;DHT22;9229;52.354;20.886;2023-05-23T23:28:46;17.80;70.40
18207;DHT22;9229;52.354;20.886;2023-05-23T23:33:49;17.80;70.70
18207;DHT22;9229;52.354;20.886;2023-05-23T23:38:54;17.80;70.60
18207;DHT22;9229;52.354;20.886;2023-05-23T23:43:55;17.90;70.90
18207;DHT22;9229;52.354;20.886;2023-05-23T23:49:00;17.70;70.80
18207;DHT22;9229;52.354;20.886;2023-05-23T23:54:03;17.70;70.70
18207;DHT22;9229;52.354;20.886;2023-05-23T23:59:05;17.70;71.10
